Arcadia, Pennsylvania
Current Conditions -  °F | °C
As of 7:15 AM on Sunday 25 Jan 2015 (Local Time) from KIDI Reporting Station
Haze Haze  
Wind Chill: 27°   Ceiling: 500
Heat Index: 34°   Visibility: 3mi
Dew Point: 32°   Wind: 8mph
Humidity: 93%   Direction: 280°W
Pressure: 29.76"   Gusts: NA
Location:  40.78°N, 78.85°W
Report Text: KIDI 251215Z AUTO 28007KT 3SM BR OVC005 01/00 A2976 RMK A01
Loading
Personal Weather Stations






























Interactive Weather Map New forecast layout! Learn more

10-Day Weather Forecast

Advertisements
Track Severe Weather on mobile